Time;durP1;ratioP1;P1;durP2;ratioP2;P2;SDS_P1;SDS_P2;PMS_P1;PMS_P2;Temp;Humidity;BMP_temperature;BMP_pressure;BME280_temperature;BME280_humidity;BME280_pressure;Samples;Min_cycle;Max_cycle;Signal;HPM_P1;HPM_P2
2024/05/08 00:01:43;;;;;;;6.40;4.38;;;8.10;99.90;12.60;100970.00;;;;5475386;26;20003;-50
2024/05/08 00:04:09;;;;;;;6.05;3.80;;;8.60;99.90;12.20;100971.00;;;;5474129;26;19999;-56
2024/05/08 00:06:36;;;;;;;11.77;4.47;;;8.50;99.90;12.20;100983.00;;;;5469969;26;20394;-49
2024/05/08 00:09:02;;;;;;;8.32;3.83;;;8.40;99.90;12.50;100981.00;;;;5469823;26;20034;-47
2024/05/08 00:11:28;;;;;;;6.50;4.20;;;8.40;99.90;12.40;100984.00;;;;5459400;26;20514;-49
2024/05/08 00:13:54;;;;;;;9.90;4.03;;;8.40;99.90;12.30;100986.00;;;;5463972;26;20009;-56
2024/05/08 00:16:20;;;;;;;5.45;4.22;;;8.40;99.90;12.00;100988.00;;;;5463139;26;19999;-48
2024/05/08 00:18:46;;;;;;;8.57;4.25;;;8.30;99.90;12.00;100981.00;;;;5459777;26;20003;-47
2024/05/08 00:21:20;;;;;;;7.88;4.57;;;8.20;99.90;12.10;100987.00;;;;5458505;26;20386;-48
2024/05/08 00:23:46;;;;;;;10.07;4.10;;;8.20;99.90;12.20;100992.00;;;;5467788;26;20014;-48
2024/05/08 00:26:13;;;;;;;8.95;4.80;;;8.10;99.90;12.20;100991.00;;;;5453273;26;20008;-48
2024/05/08 00:28:39;;;;;;;5.72;3.63;;;8.10;99.90;11.80;100998.00;;;;5444372;26;20011;-53
2024/05/08 00:31:06;;;;;;;7.47;4.03;;;8.00;99.90;11.80;100994.00;;;;5448721;26;20003;-48
2024/05/08 00:33:32;;;;;;;8.25;4.15;;;8.00;99.90;11.90;101001.00;;;;5437264;26;20012;-52
2024/05/08 00:35:58;;;;;;;9.35;4.20;;;8.00;99.90;12.00;101009.00;;;;5454245;26;19999;-48
2024/05/08 00:38:24;;;;;;;7.60;4.25;;;7.90;99.90;11.50;101004.00;;;;5449704;26;20015;-49
2024/05/08 00:40:58;;;;;;;6.90;3.70;;;7.90;99.90;11.60;101009.00;;;;5442381;26;19998;-49
2024/05/08 00:43:24;;;;;;;6.30;3.97;;;7.90;99.90;11.60;101009.00;;;;5445951;26;20084;-49
2024/05/08 00:45:50;;;;;;;6.97;4.28;;;7.80;99.90;11.20;101012.00;;;;5448058;26;20096;-48
2024/05/08 00:48:16;;;;;;;5.88;4.07;;;7.80;99.90;11.30;101013.00;;;;5438046;26;20019;-47
2024/05/08 00:50:45;;;;;;;8.10;4.35;;;7.70;99.90;11.50;101009.00;;;;5457512;26;20003;-64
2024/05/08 00:53:13;;;;;;;9.75;4.35;;;7.70;99.90;11.70;101020.00;;;;5445224;26;19998;-49
2024/05/08 00:55:42;;;;;;;10.13;4.18;;;7.70;99.90;11.60;101019.00;;;;5447969;26;20440;-50
2024/05/08 00:58:11;;;;;;;10.75;4.60;;;7.70;99.90;11.50;101019.00;;;;5443748;26;20106;-56
2024/05/08 01:00:39;;;;;;;6.88;4.13;;;7.60;99.90;11.40;101013.00;;;;5445670;26;20011;-49
2024/05/08 01:03:05;;;;;;;12.35;4.40;;;7.60;99.90;11.60;101034.00;;;;5444887;26;19999;-52
2024/05/08 01:05:32;;;;;;;7.55;4.28;;;7.50;99.90;11.40;101020.00;;;;5448857;26;20018;-49
2024/05/08 01:07:58;;;;;;;9.25;4.28;;;7.50;99.90;11.40;101023.00;;;;5452349;26;20345;-52
2024/05/08 01:10:25;;;;;;;7.65;4.68;;;7.50;99.90;11.10;101026.00;;;;5446957;26;20018;-49
2024/05/08 01:12:52;;;;;;;7.65;4.43;;;7.50;99.90;11.10;101024.00;;;;5457466;26;20002;-48
2024/05/08 01:15:18;;;;;;;10.52;5.13;;;7.40;99.90;11.40;101024.00;;;;5437289;26;20039;-52
2024/05/08 01:17:46;;;;;;;9.65;4.38;;;7.40;99.90;11.50;101032.00;;;;5432119;26;20003;-47
2024/05/08 01:20:13;;;;;;;8.85;4.30;;;7.40;99.90;11.50;101026.00;;;;5452650;26;20011;-49
2024/05/08 01:22:39;;;;;;;9.38;4.95;;;7.30;99.90;11.40;101027.00;;;;5443924;26;19995;-47
2024/05/08 01:25:05;;;;;;;12.57;4.70;;;7.30;99.90;11.40;101022.00;;;;5447273;26;19999;-47
2024/05/08 01:27:31;;;;;;;7.18;4.47;;;7.30;99.90;11.20;101023.00;;;;5445838;26;19995;-47
2024/05/08 01:29:57;;;;;;;9.25;5.22;;;7.30;99.90;11.10;101027.00;;;;5438532;26;20009;-53
2024/05/08 01:32:23;;;;;;;5.95;4.47;;;7.20;99.90;10.90;101024.00;;;;5449240;26;20002;-62
2024/05/08 01:34:49;;;;;;;8.50;4.80;;;7.20;99.90;10.90;101030.00;;;;5447127;26;20011;-49
2024/05/08 01:37:15;;;;;;;9.68;5.05;;;7.10;99.90;11.00;101019.00;;;;5452092;26;19998;-48
2024/05/08 01:39:41;;;;;;;11.25;5.28;;;7.00;99.90;11.00;101029.00;;;;5418141;26;20122;-60
2024/05/08 01:42:07;;;;;;;8.85;4.97;;;7.00;99.90;10.80;101027.00;;;;5450719;26;20066;-56
2024/05/08 01:44:34;;;;;;;7.78;4.47;;;7.00;99.90;10.60;101028.00;;;;5447595;26;20003;-63
2024/05/08 01:47:00;;;;;;;6.75;4.53;;;7.00;99.90;10.80;101018.00;;;;5448489;26;20332;-56
2024/05/08 01:49:26;;;;;;;10.00;5.30;;;6.90;99.90;10.70;101024.00;;;;5448076;26;20003;-47
2024/05/08 01:51:52;;;;;;;8.23;4.35;;;7.00;99.90;10.90;101023.00;;;;5438779;26;20010;-47
2024/05/08 01:54:18;;;;;;;11.98;4.95;;;6.90;99.90;10.70;101029.00;;;;5440663;26;20003;-49
2024/05/08 01:56:44;;;;;;;7.55;4.35;;;6.90;99.90;10.70;101029.00;;;;5451381;26;20006;-48
2024/05/08 01:59:10;;;;;;;9.82;4.85;;;6.80;99.90;10.80;101022.00;;;;5456293;26;20035;-47
2024/05/08 02:01:36;;;;;;;9.63;4.82;;;6.80;99.90;10.70;101025.00;;;;5445746;26;20314;-48
2024/05/08 02:04:03;;;;;;;8.05;5.25;;;6.80;99.90;10.50;101018.00;;;;5449651;26;20350;-48
2024/05/08 02:06:29;;;;;;;10.80;4.80;;;6.80;99.90;10.40;101034.00;;;;5436667;26;20474;-49
2024/05/08 02:08:55;;;;;;;6.15;4.78;;;6.70;99.90;10.40;101022.00;;;;5441197;26;19999;-52
2024/05/08 02:11:21;;;;;;;15.82;4.93;;;6.70;99.90;10.40;101021.00;;;;5452754;26;20022;-67
2024/05/08 02:13:48;;;;;;;8.98;5.05;;;6.70;99.90;10.20;101023.00;;;;5437894;26;20330;-51
2024/05/08 02:16:15;;;;;;;6.78;4.95;;;6.70;99.90;10.30;101027.00;;;;5448694;26;20002;-49
2024/05/08 02:18:48;;;;;;;10.32;4.78;;;6.60;99.90;10.50;101028.00;;;;5447871;26;20006;-55
2024/05/08 02:21:18;;;;;;;9.68;4.82;;;6.60;99.90;10.60;101036.00;;;;5480821;26;19998;-48
2024/05/08 02:23:44;;;;;;;9.23;5.45;;;6.60;99.90;10.50;101028.00;;;;5450046;26;19999;-48
2024/05/08 02:26:10;;;;;;;9.82;5.20;;;6.60;99.90;10.50;101026.00;;;;5449856;26;20083;-68
2024/05/08 02:28:36;;;;;;;13.18;5.18;;;6.60;99.90;10.40;101030.00;;;;5446171;26;20003;-58
2024/05/08 02:31:03;;;;;;;14.90;4.85;;;6.60;99.90;10.30;101025.00;;;;5446448;26;20013;-56
2024/05/08 02:33:29;;;;;;;8.75;5.40;;;6.50;99.90;10.40;101025.00;;;;5453040;26;20015;-48
2024/05/08 02:35:55;;;;;;;14.80;5.53;;;6.50;99.90;10.20;101019.00;;;;5433027;26;20083;-50
2024/05/08 02:38:21;;;;;;;8.70;4.75;;;6.50;99.90;10.20;101026.00;;;;5437955;26;20434;-49
2024/05/08 02:40:47;;;;;;;9.93;5.50;;;6.40;99.90;10.20;101022.00;;;;5436189;26;20437;-49
2024/05/08 02:43:13;;;;;;;10.48;5.47;;;6.40;99.90;10.20;101024.00;;;;5441762;26;20011;-49
2024/05/08 02:45:40;;;;;;;9.20;5.32;;;6.30;99.90;10.10;101023.00;;;;5446400;26;20002;-48
2024/05/08 02:48:06;;;;;;;11.88;5.35;;;6.30;99.90;10.30;101022.00;;;;5431732;26;19995;-48
2024/05/08 02:50:34;;;;;;;10.55;5.57;;;6.30;99.90;10.30;101029.00;;;;5434842;26;19999;-48
2024/05/08 02:53:00;;;;;;;11.82;5.78;;;6.30;99.90;10.20;101035.00;;;;5451717;26;19999;-49
2024/05/08 02:55:27;;;;;;;12.80;6.13;;;6.30;99.90;10.30;101030.00;;;;5438767;26;20325;-53
2024/05/08 02:57:53;;;;;;;8.25;5.07;;;6.30;99.90;10.20;101034.00;;;;5446061;26;19996;-49
2024/05/08 03:00:21;;;;;;;8.98;5.35;;;6.30;99.90;10.30;101031.00;;;;5448412;26;20068;-48
2024/05/08 03:02:47;;;;;;;8.63;5.32;;;6.40;99.90;10.40;101035.00;;;;5439726;26;20006;-48
2024/05/08 03:05:13;;;;;;;11.68;5.95;;;6.30;99.90;10.20;101033.00;;;;5441346;26;20818;-49
2024/05/08 03:07:39;;;;;;;8.63;5.18;;;6.30;99.90;10.20;101040.00;;;;5456829;26;20114;-49
2024/05/08 03:10:06;;;;;;;10.32;5.43;;;6.40;99.90;10.30;101039.00;;;;5444106;26;20081;-61
2024/05/08 03:12:32;;;;;;;10.32;4.95;;;6.30;99.90;10.40;101036.00;;;;5442569;26;20249;-48
2024/05/08 03:14:58;;;;;;;6.05;4.80;;;6.30;99.90;10.40;101038.00;;;;5431726;26;20008;-58
2024/05/08 03:17:24;;;;;;;16.85;5.07;;;6.30;99.90;10.40;101037.00;;;;5432707;26;20010;-48
2024/05/08 03:19:50;;;;;;;10.80;5.95;;;6.30;99.90;10.30;101041.00;;;;5441724;26;20068;-50
2024/05/08 03:22:16;;;;;;;9.13;5.45;;;6.20;99.90;10.40;101034.00;;;;5444969;26;20015;-47
2024/05/08 03:24:45;;;;;;;10.18;5.55;;;6.20;99.90;10.60;101043.00;;;;5448193;26;20010;-48
2024/05/08 03:27:12;;;;;;;13.75;6.18;;;6.20;99.90;10.60;101042.00;;;;5436111;26;20000;-48
2024/05/08 03:29:40;;;;;;;10.60;5.82;;;6.20;99.90;10.60;101038.00;;;;5447988;26;20079;-55
2024/05/08 03:32:06;;;;;;;8.38;5.72;;;6.20;99.90;10.60;101047.00;;;;5437762;26;20000;-51
2024/05/08 03:34:32;;;;;;;13.57;5.53;;;6.20;99.90;10.70;101041.00;;;;5470920;26;20012;-60
2024/05/08 03:36:58;;;;;;;13.10;5.90;;;6.20;99.90;10.70;101050.00;;;;5430755;26;20485;-49
2024/05/08 03:39:24;;;;;;;18.60;6.40;;;6.30;99.90;10.70;101040.00;;;;5428080;26;20043;-49
2024/05/08 03:41:50;;;;;;;8.48;5.45;;;6.30;99.90;10.80;101048.00;;;;5443166;26;19999;-50
2024/05/08 03:44:16;;;;;;;10.20;6.03;;;6.40;99.90;10.80;101041.00;;;;5433819;26;19996;-50
2024/05/08 03:46:42;;;;;;;12.32;5.55;;;6.40;99.90;10.80;101042.00;;;;5441664;26;19998;-49
2024/05/08 03:49:09;;;;;;;11.90;5.15;;;6.50;99.90;10.70;101049.00;;;;5434251;26;20318;-49
2024/05/08 03:51:36;;;;;;;8.27;5.00;;;6.60;99.90;10.70;101045.00;;;;5448876;26;20474;-49
2024/05/08 03:54:02;;;;;;;7.00;5.03;;;6.80;99.90;10.90;101052.00;;;;5443400;26;20437;-53
2024/05/08 03:56:28;;;;;;;9.23;5.25;;;6.90;99.90;11.00;101050.00;;;;5437121;26;20014;-48
2024/05/08 03:58:54;;;;;;;13.73;5.18;;;7.10;99.90;11.00;101056.00;;;;5449425;26;19998;-50
2024/05/08 04:01:20;;;;;;;11.05;5.00;;;7.10;99.90;11.00;101057.00;;;;5439377;26;20329;-55
2024/05/08 04:03:46;;;;;;;10.43;4.78;;;7.20;99.90;11.00;101061.00;;;;5442675;26;19996;-52
2024/05/08 04:06:13;;;;;;;6.03;4.82;;;7.30;99.90;11.20;101061.00;;;;5440513;26;20006;-48
2024/05/08 04:08:43;;;;;;;10.43;5.00;;;7.40;99.90;11.30;101062.00;;;;5445778;26;20075;-57
2024/05/08 04:11:11;;;;;;;9.68;4.78;;;7.50;99.90;11.30;101062.00;;;;5436537;26;20000;-47
2024/05/08 04:13:37;;;;;;;10.00;4.93;;;7.50;99.90;11.20;101064.00;;;;5439275;26;20040;-51
2024/05/08 04:16:08;;;;;;;7.03;4.63;;;7.60;99.90;11.60;101056.00;;;;5435268;26;20081;-58
2024/05/08 04:18:34;;;;;;;10.60;5.03;;;7.60;99.90;11.60;101064.00;;;;5435317;26;19995;-47
2024/05/08 04:21:01;;;;;;;11.48;4.72;;;7.70;99.90;11.70;101062.00;;;;5440250;26;20003;-56
2024/05/08 04:23:28;;;;;;;10.95;4.78;;;7.80;99.90;11.70;101066.00;;;;5444082;26;20010;-48
2024/05/08 04:25:54;;;;;;;7.47;4.65;;;7.90;99.90;11.60;101055.00;;;;5437121;26;20010;-51
2024/05/08 04:28:21;;;;;;;8.60;4.50;;;7.90;99.90;11.50;101060.00;;;;5432822;26;20072;-78
2024/05/08 04:30:47;;;;;;;9.77;4.80;;;8.00;99.90;11.70;101066.00;;;;5443944;26;20019;-47
2024/05/08 04:33:13;;;;;;;6.20;4.60;;;8.10;99.90;11.90;101062.00;;;;5443373;26;20314;-48
2024/05/08 04:35:40;;;;;;;8.20;4.47;;;8.20;99.90;11.90;101061.00;;;;5439204;26;20009;-56
2024/05/08 04:38:10;;;;;;;10.65;5.25;;;8.30;99.90;11.70;101059.00;;;;5433564;26;20000;-49
2024/05/08 04:40:37;;;;;;;8.05;4.65;;;8.40;99.90;12.10;101067.00;;;;5452320;26;20011;-50
2024/05/08 04:43:04;;;;;;;9.75;4.85;;;8.40;99.90;12.30;101066.00;;;;5446819;26;19995;-53
2024/05/08 04:45:31;;;;;;;8.38;4.35;;;8.50;99.90;12.40;101071.00;;;;5449939;26;19999;-54
2024/05/08 04:47:58;;;;;;;19.27;6.32;;;8.70;99.90;12.50;101077.00;;;;5439879;26;20003;-49
2024/05/08 04:50:28;;;;;;;8.30;4.47;;;8.80;99.90;12.10;101074.00;;;;5443581;26;20414;-51
2024/05/08 04:52:55;;;;;;;9.50;4.30;;;8.80;99.90;12.60;101069.00;;;;5446815;26;19999;-50
2024/05/08 04:55:21;;;;;;;8.35;3.95;;;9.00;99.90;12.80;101063.00;;;;5438958;26;20010;-48
2024/05/08 04:57:47;;;;;;;11.55;4.43;;;9.00;99.90;13.00;101069.00;;;;5438534;26;20018;-55
2024/05/08 05:00:13;;;;;;;9.50;4.28;;;9.20;99.90;12.70;101068.00;;;;5447706;26;20003;-58
2024/05/08 05:02:40;;;;;;;7.47;4.25;;;9.30;99.90;13.00;101067.00;;;;5444503;26;20089;-48
2024/05/08 05:05:06;;;;;;;5.90;4.15;;;9.30;99.90;13.10;101074.00;;;;5447304;26;20013;-52
2024/05/08 05:07:34;;;;;;;11.20;4.68;;;9.40;99.90;13.00;101067.00;;;;5439384;26;20015;-49
2024/05/08 05:10:00;;;;;;;15.98;4.00;;;9.50;99.90;13.30;101077.00;;;;5446457;26;20009;-58
2024/05/08 05:12:26;;;;;;;10.23;3.97;;;9.60;99.90;13.40;101072.00;;;;5455654;26;20010;-48
2024/05/08 05:14:53;;;;;;;8.40;3.72;;;9.70;99.90;13.40;101073.00;;;;5467427;26;20003;-54
2024/05/08 05:17:19;;;;;;;15.38;5.13;;;9.90;99.90;13.50;101075.00;;;;5492153;26;19998;-49
2024/05/08 05:19:45;;;;;;;11.30;3.85;;;9.90;99.90;13.60;101084.00;;;;5462815;26;20011;-48
2024/05/08 05:22:11;;;;;;;6.97;3.90;;;10.00;99.90;13.60;101087.00;;;;5467232;26;20031;-49
2024/05/08 05:24:38;;;;;;;14.05;4.88;;;10.00;99.90;13.50;101086.00;;;;5462497;26;20009;-51
2024/05/08 05:27:04;;;;;;;10.13;4.65;;;10.00;99.90;13.20;101092.00;;;;5458753;26;20010;-49
2024/05/08 05:29:30;;;;;;;11.90;4.63;;;10.00;99.90;13.40;101093.00;;;;5450582;26;20004;-50
2024/05/08 05:34:41;;;;;;;9.50;4.32;;;10.00;99.90;13.80;101095.00;;;;5452824;26;20003;-54
2024/05/08 05:37:07;;;;;;;10.90;4.50;;;10.00;99.90;14.10;101101.00;;;;5459162;26;20000;-49
2024/05/08 05:39:33;;;;;;;8.88;4.32;;;10.00;99.90;14.00;101105.00;;;;5442518;26;20090;-52
2024/05/08 05:47:29;;;;;;;12.55;3.92;;;10.10;99.90;14.00;101105.00;;;;5447801;26;19999;-51
2024/05/08 05:49:57;;;;;;;15.30;4.10;;;10.20;99.90;14.10;101102.00;;;;5460995;26;19998;-51
2024/05/08 05:52:23;;;;;;;9.38;4.05;;;10.30;99.90;14.40;101094.00;;;;5448494;26;20014;-49
2024/05/08 05:54:49;;;;;;;9.43;4.30;;;10.50;99.90;14.40;101103.00;;;;5442969;26;20002;-53
2024/05/08 05:57:16;;;;;;;6.07;4.40;;;10.60;99.90;14.50;101109.00;;;;5449053;26;19998;-49
2024/05/08 05:59:42;;;;;;;7.07;3.72;;;10.70;99.90;14.20;101116.00;;;;5454244;26;20013;-49
2024/05/08 06:02:08;;;;;;;6.13;4.28;;;10.80;99.90;14.20;101112.00;;;;5453393;26;20000;-58
2024/05/08 06:04:34;;;;;;;7.18;3.78;;;10.70;99.90;14.50;101113.00;;;;5454317;26;19996;-54
2024/05/08 06:07:01;;;;;;;7.80;4.75;;;10.70;99.90;14.10;101102.00;;;;5452362;26;20551;-48
2024/05/08 06:09:27;;;;;;;14.02;4.97;;;10.80;99.90;14.40;101108.00;;;;5456040;26;19995;-49
2024/05/08 06:11:58;;;;;;;11.65;4.38;;;10.90;99.90;14.40;101118.00;;;;5447500;26;20441;-52
2024/05/08 06:14:24;;;;;;;13.13;4.40;;;11.00;99.90;14.90;101111.00;;;;5459658;26;20010;-53
2024/05/08 06:16:50;;;;;;;13.13;4.28;;;11.00;99.90;14.80;101110.00;;;;5460905;26;19999;-53
2024/05/08 06:19:17;;;;;;;7.22;3.95;;;11.20;99.90;14.60;101119.00;;;;5443451;26;20009;-49
2024/05/08 06:21:43;;;;;;;7.30;4.00;;;11.20;99.90;14.10;101110.00;;;;5451241;26;20109;-50
2024/05/08 06:24:09;;;;;;;16.20;4.70;;;11.20;99.90;14.50;101124.00;;;;5469694;26;20000;-54
2024/05/08 06:26:41;;;;;;;12.88;4.45;;;11.10;99.80;15.00;101115.00;;;;5458055;26;20087;-48
2024/05/08 06:29:07;;;;;;;11.63;4.17;;;11.20;99.90;15.30;101115.00;;;;5446868;26;20003;-50
2024/05/08 06:31:38;;;;;;;9.30;4.80;;;11.40;99.90;15.40;101111.00;;;;5443212;26;20007;-48
2024/05/08 06:34:04;;;;;;;9.32;3.90;;;11.60;99.60;15.60;101113.00;;;;5456612;26;20011;-53
2024/05/08 06:36:30;;;;;;;8.48;4.00;;;11.80;99.20;15.80;101118.00;;;;5447354;26;20007;-49
2024/05/08 06:38:57;;;;;;;9.02;3.92;;;11.90;99.00;15.70;101129.00;;;;5446197;26;19994;-49
2024/05/08 06:41:23;;;;;;;5.32;4.03;;;12.10;98.30;15.40;101128.00;;;;5470117;26;20010;-50
2024/05/08 06:43:49;;;;;;;8.25;3.63;;;12.10;97.90;15.50;101123.00;;;;5445941;26;20007;-53
2024/05/08 06:46:17;;;;;;;8.98;3.72;;;12.10;96.90;16.00;101128.00;;;;5465289;26;20011;-51
2024/05/08 06:48:43;;;;;;;5.32;3.67;;;12.20;96.90;16.00;101129.00;;;;5454035;26;20407;-57
2024/05/08 06:51:09;;;;;;;5.10;3.53;;;12.30;96.60;16.20;101125.00;;;;5459707;26;20002;-47
2024/05/08 06:53:35;;;;;;;13.68;3.90;;;12.40;95.80;16.20;101122.00;;;;5471540;26;19998;-48
2024/05/08 06:56:02;;;;;;;6.68;4.43;;;12.50;95.90;16.20;101122.00;;;;5460722;26;20006;-49
2024/05/08 06:58:28;;;;;;;7.90;3.90;;;12.60;95.30;16.00;101120.00;;;;5472117;26;20006;-51
2024/05/08 07:00:56;;;;;;;9.60;3.97;;;12.60;95.70;16.20;101121.00;;;;5458983;26;20386;-69
2024/05/08 07:03:23;;;;;;;5.45;3.55;;;12.70;95.60;16.30;101121.00;;;;5470939;26;20328;-49
2024/05/08 07:05:49;;;;;;;8.88;3.72;;;12.90;95.70;16.90;101122.00;;;;5462745;26;20048;-51
2024/05/08 07:08:15;;;;;;;7.13;3.70;;;13.10;95.20;17.20;101122.00;;;;5464040;26;20010;-50
2024/05/08 07:10:41;;;;;;;17.52;4.28;;;13.30;94.70;17.10;101130.00;;;;5451928;26;19999;-48
2024/05/08 07:13:07;;;;;;;5.97;3.58;;;13.50;94.80;17.40;101121.00;;;;5455647;26;19998;-60
2024/05/08 07:15:33;;;;;;;12.23;3.55;;;13.70;94.00;17.40;101122.00;;;;5459153;26;20075;-52
2024/05/08 07:18:00;;;;;;;5.05;3.50;;;14.00;91.90;17.30;101122.00;;;;5467126;26;20007;-50
2024/05/08 07:20:26;;;;;;;14.15;6.07;;;14.10;91.00;17.40;101130.00;;;;5459516;26;20014;-56
2024/05/08 07:22:52;;;;;;;7.05;3.10;;;14.30;88.40;17.80;101123.00;;;;5457291;26;19999;-59
2024/05/08 07:25:18;;;;;;;8.57;3.33;;;14.40;86.60;17.90;101125.00;;;;5456330;26;20095;-49
2024/05/08 07:27:44;;;;;;;8.95;3.15;;;14.50;86.70;18.20;101119.00;;;;5478203;26;19999;-50
2024/05/08 07:30:11;;;;;;;7.75;3.20;;;14.60;85.10;18.00;101129.00;;;;5462061;26;20003;-48
2024/05/08 07:32:37;;;;;;;8.73;3.15;;;14.80;82.90;18.10;101122.00;;;;5468654;26;20007;-53
2024/05/08 07:35:04;;;;;;;5.10;3.08;;;14.90;81.20;18.20;101131.00;;;;5464299;26;20008;-54
2024/05/08 07:37:30;;;;;;;6.20;3.13;;;14.90;79.90;18.30;101139.00;;;;5465280;26;20014;-52
2024/05/08 07:39:56;;;;;;;10.80;3.58;;;15.00;79.40;18.70;101135.00;;;;5460007;26;20079;-50
2024/05/08 07:42:22;;;;;;;8.68;3.80;;;15.20;80.30;18.40;101131.00;;;;5455024;26;20405;-50
2024/05/08 07:44:48;;;;;;;9.55;3.75;;;15.30;77.50;18.60;101130.00;;;;5463310;26;20091;-49
2024/05/08 07:47:14;;;;;;;3.50;3.00;;;15.10;77.80;18.40;101134.00;;;;5471782;26;20074;-53
2024/05/08 07:49:40;;;;;;;18.23;3.90;;;15.30;75.50;18.80;101133.00;;;;5471941;26;20478;-50
2024/05/08 07:52:07;;;;;;;5.93;3.45;;;15.40;77.70;19.00;101131.00;;;;5460114;26;20003;-62
2024/05/08 07:54:33;;;;;;;9.02;3.42;;;15.60;76.30;18.70;101130.00;;;;5462730;26;20332;-49
2024/05/08 07:56:59;;;;;;;9.20;3.22;;;15.70;75.00;19.00;101135.00;;;;5464712;26;20342;-49
2024/05/08 07:59:25;;;;;;;5.40;3.03;;;15.70;75.90;18.60;101131.00;;;;5464952;26;20484;-54
2024/05/08 08:01:51;;;;;;;15.38;3.30;;;15.80;73.20;18.80;101133.00;;;;5458636;26;20001;-48
2024/05/08 08:04:17;;;;;;;7.60;2.85;;;15.90;71.50;18.90;101132.00;;;;5460175;26;19998;-53
2024/05/08 08:06:44;;;;;;;8.30;2.90;;;16.20;73.10;19.40;101121.00;;;;5460640;26;20011;-49
2024/05/08 08:09:10;;;;;;;4.93;2.53;;;16.40;69.60;19.70;101132.00;;;;5450893;26;20113;-51
2024/05/08 08:11:42;;;;;;;5.38;2.95;;;16.60;70.80;19.90;101120.00;;;;5456125;26;20116;-50
2024/05/08 08:14:08;;;;;;;7.57;3.00;;;16.70;68.50;19.80;101136.00;;;;5455071;26;20428;-48
2024/05/08 08:16:35;;;;;;;8.73;2.75;;;16.60;68.20;19.90;101130.00;;;;5455968;26;20039;-48
2024/05/08 08:19:01;;;;;;;5.57;3.05;;;16.60;68.90;19.80;101134.00;;;;5459288;26;20074;-49
2024/05/08 08:21:27;;;;;;;6.05;2.72;;;16.80;68.50;19.60;101131.00;;;;5465611;26;21505;-55
2024/05/08 08:23:53;;;;;;;9.75;3.60;;;16.80;67.60;19.50;101123.00;;;;5456162;26;19994;-56
2024/05/08 08:26:20;;;;;;;7.47;3.03;;;16.90;67.70;19.80;101130.00;;;;5445647;26;20013;-53
2024/05/08 08:28:46;;;;;;;7.43;3.30;;;17.00;66.40;19.70;101136.00;;;;5463072;26;20320;-48
2024/05/08 08:31:12;;;;;;;9.30;2.97;;;16.70;67.10;19.20;101132.00;;;;5469108;26;20002;-57
2024/05/08 08:33:38;;;;;;;7.03;2.97;;;16.40;67.70;19.20;101138.00;;;;5457778;26;20010;-49
2024/05/08 08:36:05;;;;;;;6.35;3.33;;;16.40;67.80;18.70;101135.00;;;;5446877;26;20018;-55
2024/05/08 08:38:34;;;;;;;5.03;3.47;;;16.40;66.60;18.90;101134.00;;;;5437960;26;20019;-47
2024/05/08 08:41:18;;;;;;;6.68;2.97;;;16.30;67.70;19.00;101126.00;;;;5443752;26;19994;-49
2024/05/08 08:43:46;;;;;;;8.95;3.25;;;16.40;67.80;19.40;101135.00;;;;5458094;26;20041;-48
2024/05/08 08:46:17;;;;;;;6.22;2.95;;;16.50;68.10;20.10;101130.00;;;;5454671;26;20003;-57
2024/05/08 08:48:44;;;;;;;9.77;3.58;;;16.90;67.10;19.80;101136.00;;;;5458531;26;20003;-50
2024/05/08 08:51:15;;;;;;;6.20;2.50;;;17.20;65.40;19.40;101132.00;;;;5447851;26;20379;-50
2024/05/08 08:53:42;;;;;;;6.53;3.05;;;17.20;66.50;19.40;101140.00;;;;5437667;26;20030;-49
2024/05/08 08:56:09;;;;;;;6.60;2.92;;;17.10;64.70;19.70;101143.00;;;;5461900;26;19998;-53
2024/05/08 08:58:37;;;;;;;3.92;2.50;;;17.10;64.90;20.00;101150.00;;;;5464522;26;20003;-50
2024/05/08 09:01:07;;;;;;;6.55;2.70;;;17.20;64.50;20.40;101146.00;;;;5465081;26;20013;-49
2024/05/08 09:03:36;;;;;;;4.45;2.67;;;17.40;63.80;20.20;101139.00;;;;5454948;26;20003;-49
2024/05/08 09:06:03;;;;;;;9.48;3.03;;;17.80;64.10;20.90;101144.00;;;;5448825;26;20010;-48
2024/05/08 09:08:30;;;;;;;13.05;3.63;;;17.90;64.30;20.90;101131.00;;;;5453442;26;20003;-49
2024/05/08 09:10:56;;;;;;;4.28;3.00;;;18.20;63.40;20.50;101135.00;;;;5458737;26;20025;-61
2024/05/08 09:13:23;;;;;;;8.43;3.58;;;18.30;63.10;20.50;101144.00;;;;5473537;26;20007;-47
2024/05/08 09:15:52;;;;;;;4.22;2.85;;;18.20;61.20;21.30;101139.00;;;;5474328;26;20006;-52
2024/05/08 09:18:19;;;;;;;6.65;2.78;;;18.50;62.70;21.20;101136.00;;;;5476730;26;20002;-50
2024/05/08 09:20:47;;;;;;;11.27;2.92;;;18.90;61.70;21.30;101134.00;;;;5460397;26;20004;-55
2024/05/08 09:23:14;;;;;;;9.40;3.10;;;19.00;58.90;21.60;101126.00;;;;5469379;26;20324;-49
2024/05/08 09:25:40;;;;;;;9.38;2.60;;;18.90;59.90;22.50;101127.00;;;;5462836;26;20023;-48
2024/05/08 09:28:09;;;;;;;3.83;2.45;;;19.30;59.20;22.10;101127.00;;;;5466358;26;20017;-49
2024/05/08 09:30:35;;;;;;;7.38;2.40;;;19.80;60.30;22.50;101139.00;;;;5457186;26;20421;-49
2024/05/08 09:33:03;;;;;;;5.18;2.38;;;20.00;57.70;22.80;101137.00;;;;5468983;26;19998;-49
2024/05/08 09:35:31;;;;;;;3.55;2.60;;;20.40;57.40;23.40;101129.00;;;;5462487;26;20450;-51
2024/05/08 09:37:58;;;;;;;7.93;2.38;;;20.70;55.40;23.60;101141.00;;;;5467335;26;20038;-51
2024/05/08 09:40:28;;;;;;;7.35;2.50;;;20.40;54.50;24.50;101131.00;;;;5463712;26;20031;-50
2024/05/08 09:42:58;;;;;;;5.03;2.25;;;21.30;55.60;25.80;101135.00;;;;5468320;26;19998;-50
2024/05/08 09:45:24;;;;;;;6.43;2.70;;;22.10;54.30;25.20;101139.00;;;;5465923;26;20003;-52
2024/05/08 09:47:52;;;;;;;7.45;2.33;;;22.80;51.60;25.90;101129.00;;;;5463906;26;20010;-51
2024/05/08 09:50:19;;;;;;;9.32;2.95;;;22.50;51.20;25.70;101133.00;;;;5461856;26;20007;-50
2024/05/08 09:52:52;;;;;;;12.30;2.90;;;23.00;52.00;25.70;101129.00;;;;5459960;26;19999;-48
2024/05/08 09:55:19;;;;;;;11.05;2.63;;;23.50;49.20;25.30;101131.00;;;;5469624;26;20051;-48
2024/05/08 09:57:46;;;;;;;5.60;3.38;;;23.30;49.00;25.30;101132.00;;;;5465463;26;20009;-48
2024/05/08 10:00:14;;;;;;;4.80;2.90;;;23.20;48.70;26.70;101129.00;;;;5460607;26;20379;-49
2024/05/08 10:02:43;;;;;;;5.63;2.58;;;23.50;49.20;25.70;101130.00;;;;5459856;26;20333;-50
2024/05/08 10:05:10;;;;;;;5.75;2.75;;;23.40;49.00;27.00;101125.00;;;;5463757;26;19995;-50
2024/05/08 10:07:57;;;;;;;4.85;2.88;;;23.40;48.40;26.00;101119.00;;;;5476665;26;20120;-63
2024/05/08 10:10:24;;;;;;;7.82;3.10;;;23.80;48.90;26.30;101120.00;;;;5453258;26;20004;-48
2024/05/08 10:12:50;;;;;;;4.82;2.63;;;23.40;48.00;26.10;101122.00;;;;5476332;26;20443;-51
2024/05/08 10:15:17;;;;;;;10.07;2.85;;;23.70;47.60;27.00;101113.00;;;;5464114;26;20334;-52
2024/05/08 10:18:06;;;;;;;8.27;3.00;;;24.00;47.30;27.20;101105.00;;;;5462325;26;20391;-53
2024/05/08 10:20:32;;;;;;;8.38;2.90;;;24.30;48.30;27.00;101109.00;;;;5465567;26;19998;-50
2024/05/08 10:23:05;;;;;;;7.85;3.35;;;24.70;47.90;25.30;101106.00;;;;5456222;26;20499;-58
2024/05/08 10:25:32;;;;;;;9.65;3.50;;;24.40;47.20;25.20;101110.00;;;;5461928;26;20303;-49
2024/05/08 10:27:58;;;;;;;7.57;3.30;;;23.80;47.90;25.70;101116.00;;;;5469678;26;20363;-52
2024/05/08 10:30:27;;;;;;;7.78;3.05;;;23.80;48.00;25.20;101108.00;;;;5463134;26;20360;-49
2024/05/08 10:32:54;;;;;;;6.85;3.50;;;23.40;48.80;26.40;101107.00;;;;5457788;26;20442;-60
2024/05/08 10:35:21;;;;;;;7.75;3.15;;;23.90;48.70;26.20;101096.00;;;;5458453;26;20421;-49
2024/05/08 10:37:48;;;;;;;4.15;2.80;;;24.00;48.20;27.60;101100.00;;;;5466137;26;20066;-50
2024/05/08 10:40:17;;;;;;;7.78;3.05;;;24.80;48.40;27.40;101099.00;;;;5435137;26;20035;-51
2024/05/08 10:42:43;;;;;;;11.82;3.47;;;25.20;48.80;27.40;101095.00;;;;5455906;26;20003;-52
2024/05/08 10:45:14;;;;;;;9.38;3.17;;;25.30;48.20;27.50;101103.00;;;;5464082;26;20136;-48
2024/05/08 10:47:42;;;;;;;6.97;3.13;;;25.40;47.50;28.30;101093.00;;;;5453560;26;20473;-49
2024/05/08 10:50:09;;;;;;;7.10;3.50;;;25.60;46.60;27.40;101101.00;;;;5475238;26;20014;-51
2024/05/08 10:52:35;;;;;;;5.20;3.03;;;25.80;45.90;29.10;101102.00;;;;5459979;26;20123;-48
2024/05/08 10:55:01;;;;;;;5.75;3.13;;;25.80;46.10;28.10;101101.00;;;;5453871;26;20083;-55